Time;durP1;ratioP1;P1;durP2;ratioP2;P2;SDS_P1;SDS_P2;PMS_P1;PMS_P2;Temp;Humidity;BMP_temperature;BMP_pressure;BME280_temperature;BME280_humidity;BME280_pressure;Samples;Min_cycle;Max_cycle;Signal;HPM_P1;HPM_P2
2020/12/30 00:02:07;;;;;;;31.20;19.47;;;1.80;91.20;;;;;;5066865;28;20035;-77
2020/12/30 00:04:32;;;;;;;34.07;20.20;;;1.80;91.20;;;;;;5052065;28;20028;-77
2020/12/30 00:06:58;;;;;;;34.33;21.97;;;1.80;91.20;;;;;;5067597;28;20032;-77
2020/12/30 00:09:23;;;;;;;29.97;19.60;;;1.80;91.20;;;;;;5065331;28;20033;-77
2020/12/30 00:11:49;;;;;;;36.57;22.37;;;1.70;91.30;;;;;;5071219;28;20060;-77
2020/12/30 00:14:15;;;;;;;28.40;19.43;;;1.70;91.30;;;;;;5057330;28;20222;-78
2020/12/30 00:16:40;;;;;;;38.03;22.23;;;1.70;91.40;;;;;;5053358;28;20040;-77
2020/12/30 00:19:06;;;;;;;34.83;21.80;;;1.70;91.40;;;;;;5035297;28;20039;-78
2020/12/30 00:21:32;;;;;;;35.67;22.03;;;1.80;91.60;;;;;;5035785;28;20037;-77
2020/12/30 00:23:57;;;;;;;36.43;21.77;;;1.80;91.60;;;;;;5053145;28;20032;-77
2020/12/30 00:26:23;;;;;;;33.50;20.67;;;1.80;91.70;;;;;;5058377;28;20020;-76
2020/12/30 00:28:48;;;;;;;33.27;20.77;;;1.90;91.80;;;;;;5069074;28;20033;-78
2020/12/30 00:31:14;;;;;;;34.27;21.83;;;2.00;91.80;;;;;;5070096;28;20032;-77
2020/12/30 00:33:40;;;;;;;33.37;21.00;;;2.10;91.80;;;;;;5033804;28;20075;-78
2020/12/30 00:36:07;;;;;;;39.53;23.83;;;2.20;91.80;;;;;;5044829;28;20132;-77
2020/12/30 00:38:33;;;;;;;37.10;22.33;;;2.40;91.90;;;;;;5069462;28;20028;-78
2020/12/30 00:40:59;;;;;;;37.60;24.77;;;2.50;92.00;;;;;;5058051;28;20119;-77
2020/12/30 00:43:24;;;;;;;36.83;21.87;;;2.70;92.00;;;;;;5053898;28;20032;-76
2020/12/30 00:45:50;;;;;;;29.53;20.57;;;2.80;91.90;;;;;;5049502;28;20039;-76
2020/12/30 00:48:15;;;;;;;30.63;19.40;;;2.80;91.80;;;;;;5057880;28;20044;-76
2020/12/30 00:50:41;;;;;;;31.77;19.63;;;2.80;91.60;;;;;;5068164;28;20032;-77
2020/12/30 00:53:07;;;;;;;32.77;20.77;;;2.80;91.60;;;;;;5067818;28;20051;-77
2020/12/30 00:55:32;;;;;;;37.83;20.83;;;2.80;91.50;;;;;;5043092;28;20028;-78
2020/12/30 00:57:58;;;;;;;32.40;20.87;;;2.80;91.60;;;;;;5062824;28;20400;-77
2020/12/30 01:00:23;;;;;;;33.23;20.47;;;2.80;91.70;;;;;;5031806;28;20465;-77
2020/12/30 01:02:49;;;;;;;32.57;20.80;;;2.80;91.70;;;;;;5068478;28;20044;-77
2020/12/30 01:05:15;;;;;;;31.60;20.80;;;2.90;91.70;;;;;;5066715;28;20029;-77
2020/12/30 01:07:40;;;;;;;30.53;20.33;;;2.90;91.60;;;;;;5018746;28;20029;-77
2020/12/30 01:10:06;;;;;;;33.93;21.40;;;2.80;91.50;;;;;;5031722;28;20358;-77
2020/12/30 01:12:32;;;;;;;35.77;21.43;;;2.80;91.50;;;;;;5052670;28;20452;-77
2020/12/30 01:14:57;;;;;;;31.73;20.40;;;2.70;91.40;;;;;;5068585;28;20042;-76
2020/12/30 01:17:27;;;;;;;32.77;20.87;;;2.50;91.50;;;;;;5033391;28;20032;-77
2020/12/30 01:19:52;;;;;;;33.40;20.77;;;2.60;91.70;;;;;;5069615;28;20031;-77
2020/12/30 01:22:18;;;;;;;31.37;19.17;;;2.50;91.70;;;;;;5051781;28;20028;-76
2020/12/30 01:24:43;;;;;;;27.83;19.30;;;2.50;91.60;;;;;;5051458;28;20530;-77
2020/12/30 01:27:09;;;;;;;31.97;20.60;;;2.40;91.50;;;;;;5047158;28;20123;-77
2020/12/30 01:29:35;;;;;;;30.50;19.53;;;2.30;91.50;;;;;;5053722;28;20025;-77
2020/12/30 01:32:02;;;;;;;31.23;20.37;;;2.30;91.50;;;;;;5061838;28;20036;-77
2020/12/30 01:34:28;;;;;;;31.23;19.53;;;2.30;91.50;;;;;;5060230;28;20112;-77
2020/12/30 01:36:54;;;;;;;27.50;18.73;;;2.30;91.40;;;;;;5042270;28;20108;-77
2020/12/30 01:39:20;;;;;;;30.07;19.40;;;2.20;91.40;;;;;;5068546;28;20040;-77
2020/12/30 01:41:46;;;;;;;33.13;20.13;;;2.20;91.40;;;;;;5070206;28;20033;-77
2020/12/30 01:44:12;;;;;;;35.57;20.53;;;2.30;91.50;;;;;;5069749;28;20096;-77
2020/12/30 01:46:39;;;;;;;30.37;20.33;;;2.30;91.40;;;;;;5050797;28;20124;-77
2020/12/30 01:49:17;;;;;;;28.83;18.67;;;2.20;91.30;;;;;;5050328;28;20028;-76
2020/12/30 01:51:43;;;;;;;31.30;18.77;;;2.30;91.40;;;;;;5069791;28;20060;-77
2020/12/30 01:54:13;;;;;;;29.63;19.33;;;2.30;91.40;;;;;;5060052;28;20561;-77
2020/12/30 01:56:40;;;;;;;30.17;19.60;;;2.30;91.40;;;;;;5063194;28;20033;-77
2020/12/30 01:59:08;;;;;;;32.63;19.60;;;2.30;91.40;;;;;;5067826;28;20052;-77
2020/12/30 02:01:36;;;;;;;30.87;19.43;;;2.30;91.30;;;;;;5068984;28;20107;-77
2020/12/30 02:04:04;;;;;;;30.00;19.23;;;2.30;91.20;;;;;;5066333;28;20036;-76
2020/12/30 02:06:30;;;;;;;31.23;19.33;;;2.20;91.20;;;;;;5069416;28;20563;-77
2020/12/30 02:08:57;;;;;;;33.57;19.60;;;2.10;91.30;;;;;;5034920;28;20494;-77
2020/12/30 02:11:25;;;;;;;28.80;19.47;;;2.00;91.30;;;;;;5042108;28;20500;-77
2020/12/30 02:14:07;;;;;;;33.37;19.57;;;1.90;91.40;;;;;;5068665;28;20492;-77
2020/12/30 02:16:48;;;;;;;29.53;18.67;;;1.90;91.50;;;;;;5065847;28;20032;-77
2020/12/30 02:19:13;;;;;;;34.07;20.63;;;2.00;91.60;;;;;;5067078;28;20286;-76
2020/12/30 02:21:39;;;;;;;31.97;20.40;;;2.00;91.60;;;;;;5035088;28;20447;-76
2020/12/30 02:24:07;;;;;;;35.47;21.50;;;2.00;91.80;;;;;;5050442;28;20053;-76
2020/12/30 02:26:32;;;;;;;31.07;20.60;;;2.00;91.60;;;;;;5064056;28;20028;-77
2020/12/30 02:28:58;;;;;;;32.80;21.03;;;2.10;91.70;;;;;;5054671;28;20549;-77
2020/12/30 02:31:24;;;;;;;33.97;21.40;;;2.10;91.70;;;;;;5043474;28;20127;-77
2020/12/30 02:33:49;;;;;;;32.70;19.23;;;2.10;91.70;;;;;;5037699;28;20820;-77
2020/12/30 02:36:15;;;;;;;34.63;21.27;;;2.20;91.70;;;;;;5030965;28;20033;-77
2020/12/30 02:38:40;;;;;;;34.90;23.37;;;2.30;91.80;;;;;;5071747;28;20086;-76
2020/12/30 02:41:06;;;;;;;34.27;21.37;;;2.40;91.80;;;;;;5052778;28;20082;-77
2020/12/30 02:43:32;;;;;;;35.57;23.00;;;2.50;91.70;;;;;;5070165;28;20033;-77
2020/12/30 02:45:57;;;;;;;34.43;21.70;;;2.60;91.70;;;;;;5071595;28;20028;-76
2020/12/30 02:48:23;;;;;;;31.57;21.10;;;2.60;91.60;;;;;;5051332;28;20028;-77
2020/12/30 02:50:48;;;;;;;33.23;21.70;;;2.50;91.50;;;;;;5063597;28;20044;-77
2020/12/30 02:53:14;;;;;;;33.53;21.23;;;2.60;91.60;;;;;;5037017;28;20143;-76
2020/12/30 02:55:40;;;;;;;35.77;22.47;;;2.70;91.60;;;;;;5064908;28;20408;-76
2020/12/30 02:58:06;;;;;;;36.43;22.17;;;2.70;91.60;;;;;;5037005;28;20124;-77
2020/12/30 03:00:32;;;;;;;34.40;23.37;;;2.80;91.70;;;;;;5052275;28;20438;-77
2020/12/30 03:02:57;;;;;;;32.53;21.20;;;2.90;91.70;;;;;;5071580;28;20024;-77
2020/12/30 03:05:23;;;;;;;34.97;23.30;;;3.00;91.70;;;;;;5069525;28;20279;-77
2020/12/30 03:07:49;;;;;;;32.60;21.87;;;3.00;91.70;;;;;;5070820;28;20043;-77
2020/12/30 03:10:15;;;;;;;32.30;22.80;;;3.10;91.70;;;;;;5062935;28;20039;-77
2020/12/30 03:12:40;;;;;;;38.50;23.33;;;3.20;91.70;;;;;;5054157;28;20040;-77
2020/12/30 03:15:06;;;;;;;33.03;21.63;;;3.10;91.50;;;;;;5068653;28;20028;-76
2020/12/30 03:17:32;;;;;;;33.40;22.37;;;3.20;91.60;;;;;;5045597;28;20039;-77
2020/12/30 03:19:57;;;;;;;32.53;21.47;;;3.20;91.60;;;;;;5039914;28;20032;-78
2020/12/30 03:22:23;;;;;;;32.60;21.17;;;3.30;91.60;;;;;;5035407;28;20582;-77
2020/12/30 03:24:49;;;;;;;34.57;22.13;;;3.30;91.60;;;;;;5053634;28;20043;-77
2020/12/30 03:27:14;;;;;;;32.37;21.17;;;3.40;91.80;;;;;;5053236;28;20041;-77
2020/12/30 03:29:40;;;;;;;34.00;21.50;;;3.50;91.60;;;;;;5066068;28;20033;-78
2020/12/30 03:32:06;;;;;;;30.90;21.30;;;3.60;91.60;;;;;;5035873;28;20075;-77
2020/12/30 03:34:31;;;;;;;38.33;22.67;;;3.60;91.60;;;;;;5053240;28;20455;-78
2020/12/30 03:36:57;;;;;;;34.73;21.97;;;3.80;91.70;;;;;;5053667;28;20044;-77
2020/12/30 03:39:22;;;;;;;33.57;22.13;;;3.80;91.60;;;;;;5046407;28;20647;-77
2020/12/30 03:41:48;;;;;;;32.87;21.83;;;3.80;91.50;;;;;;5071969;28;20067;-78
2020/12/30 03:44:13;;;;;;;31.93;21.17;;;3.80;91.40;;;;;;5067843;28;20496;-77
2020/12/30 03:46:39;;;;;;;33.37;21.47;;;3.80;91.40;;;;;;5068458;28;20047;-78
2020/12/30 03:49:05;;;;;;;34.47;21.97;;;3.80;91.50;;;;;;5050643;28;20036;-77
2020/12/30 03:51:30;;;;;;;34.07;21.80;;;3.70;91.40;;;;;;5056450;28;20123;-77
2020/12/30 03:53:56;;;;;;;32.83;21.17;;;3.80;91.50;;;;;;5052145;28;20097;-77
2020/12/30 03:56:22;;;;;;;30.50;20.87;;;3.70;91.40;;;;;;5066856;28;20480;-78
2020/12/30 03:58:47;;;;;;;35.17;21.10;;;3.80;91.40;;;;;;5053442;28;20035;-77
2020/12/30 04:01:13;;;;;;;31.80;21.83;;;3.70;91.40;;;;;;5064637;28;20044;-77
2020/12/30 04:03:38;;;;;;;33.63;21.70;;;3.70;91.40;;;;;;5070103;28;20480;-77
2020/12/30 04:06:04;;;;;;;38.30;24.10;;;3.70;91.40;;;;;;5068096;28;20127;-78
2020/12/30 04:08:29;;;;;;;36.17;22.60;;;3.60;91.40;;;;;;5069176;28;20188;-77
2020/12/30 04:10:55;;;;;;;31.77;21.77;;;3.60;91.50;;;;;;5022923;28;20496;-77
2020/12/30 04:13:21;;;;;;;31.97;21.73;;;3.70;91.50;;;;;;5036344;28;20039;-77
2020/12/30 04:15:46;;;;;;;34.23;21.67;;;3.70;91.50;;;;;;5058260;28;20506;-78
2020/12/30 04:18:12;;;;;;;31.80;21.43;;;3.70;91.50;;;;;;5069302;28;20024;-77
2020/12/30 04:20:38;;;;;;;35.23;22.57;;;3.80;91.60;;;;;;5052200;28;20067;-78
2020/12/30 04:23:04;;;;;;;35.60;22.27;;;3.80;91.50;;;;;;5067323;28;20082;-78
2020/12/30 04:25:29;;;;;;;31.73;21.37;;;3.80;91.50;;;;;;5036287;28;20044;-77
2020/12/30 04:27:55;;;;;;;33.70;22.37;;;3.80;91.50;;;;;;5036415;28;20388;-78
2020/12/30 04:30:20;;;;;;;33.33;21.33;;;3.80;91.30;;;;;;5056687;28;20032;-78
2020/12/30 04:32:46;;;;;;;34.50;21.63;;;3.80;91.50;;;;;;5052911;28;20052;-78
2020/12/30 04:35:12;;;;;;;34.00;23.57;;;3.80;91.50;;;;;;5047698;28;20032;-77
2020/12/30 04:37:37;;;;;;;35.40;23.87;;;3.80;91.40;;;;;;5033720;28;20385;-78
2020/12/30 04:40:03;;;;;;;36.17;22.47;;;3.80;91.30;;;;;;5055556;28;20115;-77
2020/12/30 04:42:39;;;;;;;34.00;23.03;;;3.80;91.40;;;;;;5035268;28;20115;-78
2020/12/30 04:45:08;;;;;;;36.30;23.87;;;3.80;91.50;;;;;;5053105;28;20476;-78
2020/12/30 04:47:33;;;;;;;32.27;21.43;;;3.80;91.40;;;;;;5052312;28;20029;-77
2020/12/30 04:50:01;;;;;;;38.57;23.80;;;3.90;91.50;;;;;;5055087;28;20128;-78
2020/12/30 04:52:27;;;;;;;38.83;23.33;;;3.90;91.50;;;;;;5068617;28;20087;-78
2020/12/30 04:54:55;;;;;;;38.57;23.53;;;3.90;91.50;;;;;;5052069;28;20025;-78
2020/12/30 04:57:34;;;;;;;36.20;22.27;;;3.90;91.50;;;;;;5068612;28;20028;-79
2020/12/30 05:00:05;;;;;;;34.60;22.00;;;3.90;91.50;;;;;;5068110;28;20082;-78
2020/12/30 05:02:34;;;;;;;37.40;23.33;;;3.90;91.50;;;;;;5068862;28;20024;-78
2020/12/30 05:05:01;;;;;;;35.70;22.60;;;3.90;91.50;;;;;;5052496;28;20563;-78
2020/12/30 05:07:28;;;;;;;36.03;23.00;;;3.80;91.40;;;;;;5068834;28;20541;-78
2020/12/30 05:09:55;;;;;;;37.33;23.60;;;3.70;91.40;;;;;;5070653;28;20024;-78
2020/12/30 05:12:21;;;;;;;35.07;21.43;;;3.70;91.50;;;;;;5066019;28;20040;-78
2020/12/30 05:14:48;;;;;;;35.37;21.90;;;3.60;91.40;;;;;;5066130;28;20083;-78
2020/12/30 05:17:15;;;;;;;35.23;21.30;;;3.60;91.40;;;;;;5068706;28;20583;-77
2020/12/30 05:19:46;;;;;;;37.60;22.17;;;3.60;91.50;;;;;;5067068;28;20029;-78
2020/12/30 05:22:19;;;;;;;32.93;21.43;;;3.60;91.40;;;;;;5065658;28;20110;-77
2020/12/30 05:24:48;;;;;;;35.30;22.23;;;3.50;91.40;;;;;;5068448;28;20107;-78
2020/12/30 05:27:15;;;;;;;34.67;21.73;;;3.50;91.40;;;;;;5053166;28;20055;-78
2020/12/30 05:29:50;;;;;;;36.63;22.33;;;3.50;91.40;;;;;;5069818;28;20031;-78
2020/12/30 05:32:16;;;;;;;39.20;22.93;;;3.60;91.50;;;;;;5068404;28;20029;-77
2020/12/30 05:34:42;;;;;;;35.90;20.90;;;3.60;91.40;;;;;;5067721;28;20033;-79
2020/12/30 05:37:11;;;;;;;36.93;21.43;;;3.70;91.40;;;;;;5036002;28;20035;-78
2020/12/30 05:39:36;;;;;;;34.90;21.77;;;3.70;91.30;;;;;;5068980;28;20511;-78
2020/12/30 05:42:19;;;;;;;33.83;21.27;;;3.70;91.30;;;;;;5070099;28;20060;-78
2020/12/30 05:44:47;;;;;;;32.57;21.20;;;3.80;91.30;;;;;;5055556;28;20032;-76
2020/12/30 05:47:20;;;;;;;36.13;22.43;;;3.80;91.30;;;;;;5051532;28;20024;-77
2020/12/30 05:49:47;;;;;;;33.87;20.93;;;3.90;91.20;;;;;;5055381;28;20039;-78
2020/12/30 05:52:16;;;;;;;33.47;21.27;;;3.90;91.20;;;;;;5071931;28;20052;-77
2020/12/30 05:54:46;;;;;;;33.10;21.23;;;3.90;91.30;;;;;;5071366;28;20040;-78
2020/12/30 05:57:36;;;;;;;32.37;20.50;;;3.90;91.20;;;;;;5055775;28;20036;-77
2020/12/30 06:00:04;;;;;;;30.43;20.27;;;4.00;91.20;;;;;;5072656;28;20028;-78
2020/12/30 06:02:31;;;;;;;29.67;18.70;;;4.10;91.20;;;;;;5069593;28;20044;-78
2020/12/30 06:05:20;;;;;;;30.83;20.07;;;4.10;91.20;;;;;;5071291;28;20036;-77
2020/12/30 06:07:50;;;;;;;30.83;20.23;;;4.10;91.00;;;;;;5055300;28;20028;-78
2020/12/30 06:10:20;;;;;;;30.13;19.60;;;4.10;91.00;;;;;;5063229;28;20029;-78
2020/12/30 06:12:51;;;;;;;31.50;19.37;;;4.10;90.90;;;;;;5073957;28;20130;-78
2020/12/30 06:15:21;;;;;;;31.73;19.87;;;4.00;90.80;;;;;;5069269;28;20048;-78
2020/12/30 06:18:03;;;;;;;30.37;19.20;;;4.00;90.80;;;;;;5072983;28;20029;-78
2020/12/30 06:20:31;;;;;;;33.07;19.57;;;4.00;90.80;;;;;;5068431;28;20075;-79
2020/12/30 06:22:57;;;;;;;35.20;19.53;;;4.10;90.70;;;;;;5072519;28;20082;-79
2020/12/30 06:25:25;;;;;;;33.93;20.10;;;4.10;90.60;;;;;;5063303;28;20028;-78
2020/12/30 06:27:52;;;;;;;33.07;20.50;;;4.10;90.60;;;;;;5054879;28;20098;-78
2020/12/30 06:30:18;;;;;;;31.93;18.77;;;4.10;90.60;;;;;;5071943;28;20024;-77
2020/12/30 06:32:44;;;;;;;31.47;18.07;;;4.10;90.60;;;;;;5055825;28;20062;-78
2020/12/30 06:35:10;;;;;;;29.33;18.50;;;4.10;90.50;;;;;;5076192;28;20041;-78
2020/12/30 06:37:37;;;;;;;28.20;17.67;;;4.00;90.50;;;;;;5073905;28;20043;-78
2020/12/30 06:40:19;;;;;;;26.87;17.47;;;3.90;90.30;;;;;;5084776;28;20056;-78
2020/12/30 06:42:45;;;;;;;29.27;17.13;;;3.80;90.20;;;;;;5092031;28;20032;-78
2020/12/30 06:45:13;;;;;;;30.77;17.83;;;3.80;90.40;;;;;;5084911;28;20025;-78
2020/12/30 06:48:05;;;;;;;26.87;17.33;;;3.70;90.30;;;;;;5067044;28;20068;-78
2020/12/30 06:50:31;;;;;;;27.50;16.53;;;3.80;90.40;;;;;;5070955;28;20071;-78
2020/12/30 06:52:56;;;;;;;28.27;17.53;;;3.70;90.30;;;;;;5057538;28;20404;-79
2020/12/30 06:55:44;;;;;;;30.93;19.03;;;3.70;90.40;;;;;;5065053;28;20031;-78
2020/12/30 06:58:30;;;;;;;30.23;18.43;;;3.60;90.30;;;;;;5074461;28;20104;-78
2020/12/30 07:00:57;;;;;;;30.00;19.27;;;3.60;90.40;;;;;;5069739;28;20032;-78
2020/12/30 07:03:23;;;;;;;25.97;17.83;;;3.70;90.40;;;;;;5017858;28;20040;-79
2020/12/30 07:05:48;;;;;;;27.17;17.73;;;3.60;90.50;;;;;;5050780;28;20041;-78
2020/12/30 07:08:37;;;;;;;28.73;18.07;;;3.60;90.50;;;;;;5062089;28;20131;-77
2020/12/30 07:11:02;;;;;;;31.47;18.40;;;3.50;90.40;;;;;;5049769;28;20674;-79
2020/12/30 07:13:28;;;;;;;29.70;18.57;;;3.50;90.50;;;;;;5069193;28;20039;-78
2020/12/30 07:16:14;;;;;;;29.27;18.00;;;3.50;90.50;;;;;;5069744;28;20046;-78
2020/12/30 07:18:42;;;;;;;28.63;17.83;;;3.40;90.50;;;;;;5069031;28;20032;-79
2020/12/30 07:21:13;;;;;;;29.13;17.47;;;3.40;90.60;;;;;;5054260;28;20036;-78
2020/12/30 07:23:39;;;;;;;30.57;19.17;;;3.60;90.80;;;;;;5053384;28;20027;-79
2020/12/30 07:26:04;;;;;;;32.00;19.77;;;3.60;90.90;;;;;;5053128;28;20051;-79
2020/12/30 07:28:30;;;;;;;31.07;19.17;;;3.70;90.70;;;;;;5055024;28;20371;-78
2020/12/30 07:30:56;;;;;;;31.47;18.13;;;3.80;90.70;;;;;;5048226;28;20484;-78
2020/12/30 07:33:23;;;;;;;31.63;19.03;;;3.90;90.70;;;;;;5053832;28;20028;-77
2020/12/30 07:35:48;;;;;;;32.10;19.60;;;3.90;90.70;;;;;;5062488;28;20029;-78
2020/12/30 07:38:14;;;;;;;31.13;19.67;;;4.00;90.70;;;;;;5035844;28;20037;-78
2020/12/30 07:40:40;;;;;;;34.17;20.73;;;4.00;90.80;;;;;;5071185;28;20152;-78
2020/12/30 07:43:05;;;;;;;32.93;19.97;;;4.10;90.70;;;;;;5055369;28;20437;-78
2020/12/30 07:45:31;;;;;;;31.80;20.07;;;4.10;90.70;;;;;;5049321;28;20036;-79
2020/12/30 07:47:56;;;;;;;32.87;19.33;;;4.20;90.80;;;;;;5071591;28;20119;-79
2020/12/30 07:50:22;;;;;;;33.47;20.70;;;4.30;90.80;;;;;;5037873;28;20530;-77
2020/12/30 07:52:52;;;;;;;33.73;20.67;;;4.40;90.70;;;;;;5051006;28;20070;-78
2020/12/30 07:55:25;;;;;;;34.33;21.30;;;4.50;90.60;;;;;;5069986;28;20056;-79
2020/12/30 07:57:55;;;;;;;33.40;20.47;;;4.50;90.50;;;;;;5053552;28;20036;-78
2020/12/30 08:00:21;;;;;;;33.07;20.80;;;4.60;90.40;;;;;;5055403;28;20091;-78
2020/12/30 08:02:46;;;;;;;36.60;21.00;;;4.60;90.40;;;;;;5053822;28;20036;-80
2020/12/30 08:05:12;;;;;;;29.27;19.17;;;4.60;90.40;;;;;;5041401;28;20070;-79
2020/12/30 08:07:38;;;;;;;33.47;20.33;;;4.80;90.50;;;;;;5052816;28;20072;-80
2020/12/30 08:10:05;;;;;;;29.30;19.07;;;4.90;90.40;;;;;;5051910;28;20052;-80
2020/12/30 08:12:30;;;;;;;31.63;18.83;;;4.90;90.30;;;;;;5068674;28;20032;-79
2020/12/30 08:14:56;;;;;;;34.53;20.33;;;4.90;90.40;;;;;;5068918;28;20035;-79
2020/12/30 08:17:22;;;;;;;35.00;20.13;;;5.00;90.30;;;;;;5018245;28;20118;-78
2020/12/30 08:19:49;;;;;;;31.37;20.60;;;5.00;90.40;;;;;;5035952;28;20033;-79
2020/12/30 08:22:27;;;;;;;35.47;21.50;;;5.00;90.30;;;;;;5043023;28;20678;-79
2020/12/30 08:24:57;;;;;;;37.87;22.03;;;4.90;90.20;;;;;;5055756;28;20096;-79
2020/12/30 08:27:24;;;;;;;37.07;21.67;;;4.80;90.20;;;;;;5062129;28;20048;-77
2020/12/30 08:29:50;;;;;;;39.17;23.67;;;4.80;90.30;;;;;;5047841;28;20133;-78
2020/12/30 08:32:31;;;;;;;40.03;23.70;;;4.80;90.40;;;;;;5047316;28;20048;-79
2020/12/30 08:35:06;;;;;;;41.43;24.03;;;4.90;90.40;;;;;;5043770;28;20036;-79
2020/12/30 08:37:34;;;;;;;41.33;24.67;;;5.00;90.30;;;;;;5051375;28;20028;-80
2020/12/30 08:40:03;;;;;;;38.67;24.10;;;5.00;90.30;;;;;;5042021;28;20043;-78
2020/12/30 08:42:53;;;;;;;43.00;26.57;;;5.10;90.30;;;;;;5048072;28;20123;-78
2020/12/30 08:45:30;;;;;;;44.23;26.10;;;5.10;90.20;;;;;;5046752;28;20021;-78
2020/12/30 08:47:58;;;;;;;43.80;27.80;;;5.30;90.20;;;;;;5046937;28;20481;-78
2020/12/30 08:50:26;;;;;;;49.90;28.53;;;5.30;90.30;;;;;;5063561;28;20033;-78
2020/12/30 08:52:52;;;;;;;51.17;30.53;;;5.40;90.20;;;;;;5058890;28;20048;-79
2020/12/30 08:55:18;;;;;;;51.00;31.00;;;5.50;90.20;;;;;;5059132;28;20512;-78
2020/12/30 08:57:48;;;;;;;47.37;30.37;;;5.60;90.10;;;;;;5047982;28;20029;-80
2020/12/30 09:00:15;;;;;;;46.40;28.10;;;5.70;89.80;;;;;;5025297;28;20576;-79
2020/12/30 09:02:41;;;;;;;50.23;29.07;;;5.60;88.80;;;;;;5043224;28;20044;-80
2020/12/30 09:05:06;;;;;;;48.13;29.90;;;5.60;88.90;;;;;;5060617;28;20033;-79
2020/12/30 09:07:32;;;;;;;51.23;30.73;;;5.70;89.20;;;;;;5031597;28;20032;-79
2020/12/30 09:10:09;;;;;;;50.13;31.40;;;5.80;89.30;;;;;;5046945;28;20051;-79
2020/12/30 09:12:37;;;;;;;56.43;34.33;;;5.80;89.30;;;;;;5030008;28;20044;-79
2020/12/30 09:15:06;;;;;;;56.47;36.13;;;6.00;89.30;;;;;;5054103;28;20625;-78
2020/12/30 09:17:33;;;;;;;49.13;30.10;;;6.10;89.20;;;;;;5034197;28;20356;-79
2020/12/30 09:20:12;;;;;;;50.57;32.10;;;6.20;88.20;;;;;;5053441;28;20025;-78
2020/12/30 09:22:38;;;;;;;45.47;29.20;;;6.40;88.90;;;;;;5068073;28;20104;-78
2020/12/30 09:25:06;;;;;;;51.00;33.47;;;6.50;88.30;;;;;;5073167;28;20103;-79
2020/12/30 09:27:36;;;;;;;58.50;37.00;;;6.70;88.00;;;;;;5068531;28;20036;-79
2020/12/30 09:30:09;;;;;;;47.60;29.07;;;6.80;87.40;;;;;;5075351;28;20023;-79
2020/12/30 09:32:35;;;;;;;48.17;29.97;;;6.90;86.40;;;;;;5073329;28;20126;-80
2020/12/30 09:35:02;;;;;;;56.77;35.80;;;6.80;86.00;;;;;;5068816;28;20107;-79
2020/12/30 09:37:28;;;;;;;50.10;31.90;;;6.70;86.10;;;;;;5070485;28;20098;-78
2020/12/30 09:40:13;;;;;;;45.17;27.53;;;6.70;86.40;;;;;;5049701;28;20400;-79
2020/12/30 09:42:43;;;;;;;43.07;25.27;;;6.60;86.10;;;;;;5054605;28;20025;-79
2020/12/30 09:45:14;;;;;;;43.80;28.03;;;6.40;85.80;;;;;;5050678;28;20025;-80
2020/12/30 09:47:41;;;;;;;47.83;29.27;;;6.30;86.30;;;;;;5068061;28;20028;-80
2020/12/30 09:50:09;;;;;;;42.30;25.93;;;6.30;86.50;;;;;;5056615;28;20465;-80
2020/12/30 09:52:52;;;;;;;43.43;27.63;;;6.30;86.10;;;;;;5075158;28;20572;-80
2020/12/30 09:55:19;;;;;;;39.00;24.43;;;6.30;86.30;;;;;;5075768;28;20029;-79
2020/12/30 09:57:45;;;;;;;38.30;25.63;;;6.30;86.20;;;;;;5061445;28;20381;-80
2020/12/30 10:00:11;;;;;;;41.63;24.23;;;6.10;86.30;;;;;;5063848;28;20483;-80
2020/12/30 10:02:36;;;;;;;37.63;24.43;;;6.10;86.50;;;;;;5048141;28;20029;-79
2020/12/30 10:05:02;;;;;;;37.67;23.43;;;6.10;86.60;;;;;;5080736;28;20035;-79
2020/12/30 10:07:28;;;;;;;39.70;25.70;;;6.10;86.70;;;;;;5077350;28;20392;-79
2020/12/30 10:09:54;;;;;;;40.93;24.67;;;6.10;86.80;;;;;;5042084;28;20067;-79
2020/12/30 10:12:23;;;;;;;39.77;25.87;;;6.10;86.70;;;;;;5056336;28;20047;-79
2020/12/30 10:14:49;;;;;;;39.13;25.73;;;6.20;86.80;;;;;;5056732;28;20052;-79
2020/12/30 10:17:15;;;;;;;42.33;25.53;;;6.20;86.70;;;;;;5054071;28;20044;-78
2020/12/30 10:19:40;;;;;;;37.17;24.70;;;6.30;86.80;;;;;;5071446;28;20043;-78
2020/12/30 10:22:11;;;;;;;42.30;26.23;;;6.30;86.90;;;;;;5079221;28;20082;-77
2020/12/30 10:24:44;;;;;;;40.00;25.73;;;6.30;86.50;;;;;;5076232;28;20028;-79
2020/12/30 10:27:12;;;;;;;38.72;23.48;;;6.40;86.10;;;;;;5080603;28;20035;-79
2020/12/30 10:29:38;;;;;;;36.23;22.80;;;6.40;86.10;;;;;;5058830;28;20120;-79
2020/12/30 10:32:03;;;;;;;39.13;24.07;;;6.30;85.80;;;;;;5074825;28;20123;-78
2020/12/30 10:34:29;;;;;;;35.47;23.23;;;6.30;86.10;;;;;;5073761;28;20059;-78
2020/12/30 10:36:56;;;;;;;35.23;21.93;;;6.40;86.10;;;;;;5058485;28;20061;-79
2020/12/30 10:39:22;;;;;;;36.57;22.83;;;6.40;85.70;;;;;;5074230;28;20043;-80
2020/12/30 10:41:53;;;;;;;35.57;23.37;;;6.40;85.70;;;;;;5074070;28;20370;-80
2020/12/30 10:44:19;;;;;;;40.33;24.77;;;6.40;85.60;;;;;;5076924;28;20077;-79
2020/12/30 10:46:46;;;;;;;35.60;23.60;;;6.50;85.80;;;;;;5042391;28;20028;-78
2020/12/30 10:49:12;;;;;;;35.27;22.27;;;6.60;85.60;;;;;;5078940;28;20025;-79
2020/12/30 10:51:38;;;;;;;30.97;21.63;;;6.70;85.30;;;;;;5066605;28;20137;-80
2020/12/30 10:54:04;;;;;;;30.87;21.40;;;6.70;85.30;;;;;;5053587;28;20087;-80
2020/12/30 10:56:30;;;;;;;29.63;20.57;;;6.60;85.30;;;;;;5062533;28;20037;-78
2020/12/30 10:58:56;;;;;;;33.30;20.43;;;6.70;85.30;;;;;;5053781;28;20038;-80
2020/12/30 11:01:21;;;;;;;31.77;20.40;;;6.70;85.10;;;;;;5077969;28;20086;-80
2020/12/30 11:03:47;;;;;;;30.73;20.80;;;6.60;85.10;;;;;;5064951;28;20120;-80
2020/12/30 11:06:13;;;;;;;32.80;20.93;;;6.60;84.90;;;;;;5062186;28;20029;-79
2020/12/30 11:08:43;;;;;;;33.63;21.33;;;6.50;85.20;;;;;;5081694;28;20041;-82
2020/12/30 11:11:08;;;;;;;28.73;20.47;;;6.60;85.40;;;;;;5021773;28;20072;-80
2020/12/30 11:13:34;;;;;;;30.27;21.03;;;6.60;85.50;;;;;;5021917;28;20038;-78
2020/12/30 11:16:00;;;;;;;31.23;21.33;;;6.60;85.40;;;;;;5020546;28;20033;-79
2020/12/30 11:18:25;;;;;;;33.00;21.93;;;6.60;85.40;;;;;;4999417;28;20070;-78
2020/12/30 11:20:51;;;;;;;29.70;20.50;;;6.70;85.40;;;;;;4994512;28;20116;-79
2020/12/30 11:23:17;;;;;;;31.50;20.23;;;6.70;85.30;;;;;;4998456;28;20537;-79
2020/12/30 11:25:44;;;;;;;35.03;21.70;;;6.70;84.90;;;;;;5012865;28;20072;-77
2020/12/30 11:28:10;;;;;;;35.70;21.47;;;6.60;85.20;;;;;;4995037;28;20141;-79
2020/12/30 11:30:36;;;;;;;36.67;21.83;;;6.70;85.50;;;;;;4981253;28;20556;-78
2020/12/30 11:33:03;;;;;;;32.20;21.33;;;6.70;85.00;;;;;;5011459;28;20089;-79
2020/12/30 11:35:29;;;;;;;29.37;20.03;;;6.70;84.80;;;;;;5025983;28;20037;-79
2020/12/30 11:37:54;;;;;;;34.43;21.80;;;6.70;85.20;;;;;;5003721;28;20231;-79
2020/12/30 11:40:21;;;;;;;32.57;20.00;;;6.70;85.50;;;;;;4992076;28;20069;-79
2020/12/30 11:42:46;;;;;;;32.73;21.37;;;6.60;85.20;;;;;;5010216;28;20116;-79
2020/12/30 11:45:13;;;;;;;34.07;20.57;;;6.60;85.60;;;;;;5019357;28;20080;-79
2020/12/30 11:47:38;;;;;;;30.93;21.00;;;6.60;85.80;;;;;;5029383;28;20129;-78
2020/12/30 11:50:05;;;;;;;35.10;21.40;;;6.60;86.00;;;;;;5035116;28;20061;-78
2020/12/30 11:52:31;;;;;;;33.40;21.33;;;6.60;85.40;;;;;;4994596;28;20125;-78
2020/12/30 11:54:57;;;;;;;33.00;22.43;;;6.50;85.30;;;;;;5030696;28;20103;-78
2020/12/30 11:57:23;;;;;;;33.20;21.80;;;6.50;85.40;;;;;;5034916;28;20026;-78
2020/12/30 11:59:48;;;;;;;32.63;20.77;;;6.50;85.20;;;;;;5031971;28;20064;-79
2020/12/30 12:02:14;;;;;;;33.13;20.93;;;6.60;85.80;;;;;;5021587;28;20042;-79
2020/12/30 12:04:40;;;;;;;32.60;20.37;;;6.50;85.60;;;;;;5010632;28;20042;-79
2020/12/30 12:07:05;;;;;;;33.47;20.23;;;6.60;85.90;;;;;;5029270;28;20470;-80
2020/12/30 12:09:31;;;;;;;29.77;19.37;;;6.60;85.90;;;;;;5028980;28;20033;-80
2020/12/30 12:11:57;;;;;;;30.73;20.30;;;6.70;85.90;;;;;;5046234;28;20141;-79
2020/12/30 12:14:23;;;;;;;29.80;19.70;;;6.70;85.80;;;;;;5052086;28;20116;-80
2020/12/30 12:16:56;;;;;;;30.93;19.23;;;6.70;85.80;;;;;;5038241;28;20030;-80
2020/12/30 12:19:23;;;;;;;29.93;19.80;;;6.60;85.80;;;;;;5019110;28;20410;-79
2020/12/30 12:21:49;;;;;;;28.53;17.90;;;6.70;85.80;;;;;;5012998;28;20048;-79
2020/12/30 12:24:16;;;;;;;30.73;19.97;;;6.70;85.90;;;;;;5037218;28;20474;-77
2020/12/30 12:26:42;;;;;;;29.77;18.63;;;6.70;85.70;;;;;;5012078;28;20053;-77
2020/12/30 12:29:40;;;;;;;29.90;19.17;;;6.60;85.70;;;;;;5052935;28;20481;-78
2020/12/30 12:32:12;;;;;;;25.70;18.37;;;6.70;85.90;;;;;;5007483;28;20088;-79
2020/12/30 12:34:40;;;;;;;28.67;18.50;;;6.70;85.80;;;;;;5046344;28;20041;-77
2020/12/30 12:37:08;;;;;;;26.80;18.17;;;6.70;85.80;;;;;;5016268;28;20026;-78
2020/12/30 12:39:34;;;;;;;25.93;17.60;;;6.70;85.70;;;;;;5033683;28;20454;-78